createdAt,value
2016-09-18T00:02:28.130Z,"  -73"
2016-09-18T00:07:24.681Z,"  -74"
2016-09-18T00:12:21.806Z,"  -75"
2016-09-18T00:17:18.868Z,"  -75"
2016-09-18T00:22:15.505Z,"  -65"
2016-09-18T00:27:12.166Z,"  -65"
2016-09-18T00:32:08.700Z,"  -65"
2016-09-18T00:37:05.273Z,"  -64"
2016-09-18T00:42:02.260Z,"  -65"
2016-09-18T00:46:58.795Z,"  -64"
2016-09-18T00:51:55.423Z,"  -65"
2016-09-18T00:56:51.808Z,"  -66"
2016-09-18T01:01:48.784Z,"  -65"
2016-09-18T01:06:45.151Z,"  -65"
2016-09-18T01:11:41.679Z,"  -65"
2016-09-18T01:16:38.349Z,"  -65"
2016-09-18T01:21:35.017Z,"  -65"
2016-09-18T01:26:31.621Z,"  -65"
2016-09-18T01:31:28.012Z,"  -65"
2016-09-18T01:36:24.678Z,"  -66"
2016-09-18T01:41:21.359Z,"  -65"
2016-09-18T01:46:17.936Z,"  -65"
2016-09-18T01:51:14.733Z,"  -65"
2016-09-18T01:56:13.819Z,"  -65"
2016-09-18T02:01:09.821Z,"  -65"
2016-09-18T02:06:06.402Z,"  -64"
2016-09-18T02:11:02.968Z,"  -67"
2016-09-18T02:16:00.040Z,"  -65"
2016-09-18T02:20:59.131Z,"  -65"
2016-09-18T02:25:55.004Z,"  -65"
2016-09-18T02:30:51.558Z,"  -65"
2016-09-18T02:35:48.726Z,"  -65"
2016-09-18T02:40:45.264Z,"  -64"
2016-09-18T02:45:44.265Z,"  -64"
2016-09-18T02:50:40.385Z,"  -65"
2016-09-18T02:55:37.061Z,"  -64"
2016-09-18T03:00:33.730Z,"  -65"
2016-09-18T03:05:30.325Z,"  -64"
2016-09-18T03:10:26.987Z,"  -65"
2016-09-18T03:15:23.481Z,"  -64"
2016-09-18T03:20:20.359Z,"  -64"
2016-09-18T03:25:17.254Z,"  -64"
2016-09-18T03:30:13.832Z,"  -64"
2016-09-18T03:35:10.685Z,"  -64"
2016-09-18T03:40:06.941Z,"  -64"
2016-09-18T03:45:03.792Z,"  -65"
2016-09-18T03:50:00.748Z,"  -66"
2016-09-18T03:54:57.708Z,"  -63"
2016-09-18T03:59:54.331Z,"  -65"
2016-09-18T04:04:50.902Z,"  -64"
2016-09-18T04:09:47.398Z,"  -65"
2016-09-18T04:14:44.017Z,"  -65"
2016-09-18T04:19:40.526Z,"  -65"
2016-09-18T04:24:37.127Z,"  -64"
2016-09-18T04:29:33.720Z,"  -64"
2016-09-18T04:34:30.258Z,"  -66"
2016-09-18T04:39:26.568Z,"  -69"
2016-09-18T04:44:23.320Z,"  -67"
2016-09-18T04:49:20.193Z,"  -67"
2016-09-18T04:54:16.708Z,"  -65"
2016-09-18T04:59:13.209Z,"  -65"
2016-09-18T05:04:10.089Z,"  -65"
2016-09-18T05:09:06.816Z,"  -67"
2016-09-18T05:14:03.545Z,"  -64"
2016-09-18T05:19:00.037Z,"  -63"
2016-09-18T05:23:56.653Z,"  -66"
2016-09-18T05:28:53.230Z,"  -65"
2016-09-18T05:33:49.602Z,"  -67"
2016-09-18T05:38:46.519Z,"  -66"
2016-09-18T05:43:43.188Z,"  -65"
2016-09-18T05:48:39.752Z,"  -67"
2016-09-18T05:53:36.230Z,"  -65"
2016-09-18T05:58:33.345Z,"  -64"
2016-09-18T06:03:29.663Z,"  -66"
2016-09-18T06:08:26.143Z,"  -65"
2016-09-18T06:13:23.179Z,"  -66"
2016-09-18T06:18:19.815Z,"  -66"
2016-09-18T06:23:16.505Z,"  -67"
2016-09-18T06:28:13.001Z,"  -67"
2016-09-18T06:33:09.829Z,"  -69"
2016-09-18T06:38:06.225Z,"  -66"
2016-09-18T06:43:03.227Z,"  -66"
2016-09-18T06:47:59.838Z,"  -67"
2016-09-18T06:52:56.334Z,"  -66"
2016-09-18T06:57:52.962Z,"  -69"
2016-09-18T07:02:49.520Z,"  -65"
2016-09-18T07:12:46.616Z,"  -70"
2016-09-18T07:17:43.013Z,"  -71"
2016-09-18T07:22:40.084Z,"  -76"
2016-09-18T07:27:37.386Z,"  -75"
2016-09-18T07:32:33.796Z,"  -71"
2016-09-18T07:37:30.419Z,"  -68"
2016-09-18T07:42:27.371Z,"  -71"
2016-09-18T07:47:23.984Z,"  -65"
2016-09-18T07:52:20.764Z,"  -62"
2016-09-18T07:57:17.671Z,"  -62"
2016-09-18T08:02:14.498Z,"  -62"
2016-09-18T08:07:11.280Z,"  -62"
2016-09-18T08:12:07.803Z,"  -62"
2016-09-18T08:17:04.605Z,"  -63"
2016-09-18T08:22:02.443Z,"  -62"
2016-09-18T08:26:59.879Z,"  -82"
2016-09-18T08:31:55.521Z,"  -73"
2016-09-18T08:36:51.616Z,"  -78"
2016-09-18T08:41:47.725Z,"  -79"
2016-09-18T08:46:44.561Z,"  -75"
2016-09-18T08:51:42.078Z,"  -73"
2016-09-18T08:56:38.817Z,"  -76"
2016-09-18T09:01:35.524Z,"  -72"
2016-09-18T09:06:32.505Z,"  -78"
2016-09-18T09:11:28.855Z,"  -76"
2016-09-18T09:16:25.588Z,"  -76"
2016-09-18T09:21:22.359Z,"  -76"
2016-09-18T09:26:18.903Z,"  -79"
2016-09-18T09:31:16.106Z,"  -75"
2016-09-18T09:36:13.447Z,"  -74"
2016-09-18T09:41:10.288Z,"  -80"
2016-09-18T09:46:07.236Z,"  -74"
2016-09-18T09:51:05.674Z,"  -76"
2016-09-18T09:56:02.177Z,"  -71"
2016-09-18T10:00:59.181Z,"  -74"
2016-09-18T10:05:55.939Z,"  -72"
2016-09-18T10:10:52.939Z,"  -74"
2016-09-18T10:15:50.382Z,"  -78"
2016-09-18T10:20:47.163Z,"  -77"
2016-09-18T10:25:44.376Z,"  -75"
2016-09-18T10:30:41.096Z,"  -82"
2016-09-18T10:35:38.489Z,"  -75"
2016-09-18T10:40:37.304Z,"  -77"
2016-09-18T10:45:37.561Z,"  -77"
2016-09-18T10:50:33.786Z,"  -77"
2016-09-18T10:55:33.249Z,"  -79"
2016-09-18T11:00:34.660Z,"  -76"
2016-09-18T11:05:37.735Z,"  -83"
2016-09-18T11:10:35.435Z,"  -78"
2016-09-18T11:15:31.484Z,"  -75"
2016-09-18T11:20:33.060Z,"  -75"
2016-09-18T11:25:31.986Z,"  -75"
2016-09-18T11:30:31.496Z,"  -77"
2016-09-18T11:35:24.750Z,"  -74"
2016-09-18T11:40:16.258Z,"  -80"
2016-09-18T11:45:12.599Z,"  -80"
2016-09-18T11:50:08.732Z,"  -78"
2016-09-18T11:55:11.825Z,"  -79"
2016-09-18T12:00:11.907Z,"  -74"
2016-09-18T12:05:03.702Z,"  -78"
2016-09-18T12:09:55.113Z,"  -81"
2016-09-18T12:14:49.682Z,"  -81"
2016-09-18T12:19:44.633Z,"  -79"
2016-09-18T12:24:45.865Z,"  -83"
2016-09-18T12:29:40.465Z,"  -80"
2016-09-18T12:34:37.447Z,"  -80"
2016-09-18T12:39:33.390Z,"  -83"
2016-09-18T12:44:29.912Z,"  -83"
2016-09-18T12:49:26.667Z,"  -84"
2016-09-18T12:54:22.727Z,"  -83"
2016-09-18T12:59:18.859Z,"  -83"
2016-09-18T13:04:15.648Z,"  -77"
2016-09-18T13:09:12.129Z,"  -81"
2016-09-18T13:14:09.476Z,"  -76"
2016-09-18T13:19:06.889Z,"  -76"
2016-09-18T13:24:03.511Z,"  -81"
2016-09-18T13:28:59.635Z,"  -74"
2016-09-18T13:33:57.324Z,"  -74"
2016-09-18T13:38:53.899Z,"  -79"
2016-09-18T13:43:50.273Z,"  -76"
2016-09-18T13:48:47.740Z,"  -78"
2016-09-18T13:53:45.190Z,"  -76"
2016-09-18T13:58:45.894Z,"  -77"
2016-09-18T14:03:42.196Z,"  -79"
2016-09-18T14:08:38.338Z,"  -77"
2016-09-18T14:13:34.751Z,"  -79"
2016-09-18T14:18:31.025Z,"  -74"
2016-09-18T14:23:27.747Z,"  -74"
2016-09-18T14:28:24.939Z,"  -78"
2016-09-18T14:33:21.886Z,"  -76"
2016-09-18T14:38:19.679Z,"  -81"
2016-09-18T14:43:16.137Z,"  -79"
2016-09-18T14:48:12.793Z,"  -76"
2016-09-18T14:53:09.425Z,"  -73"
2016-09-18T14:58:07.365Z,"  -77"
2016-09-18T15:03:03.769Z,"  -77"
2016-09-18T15:08:03.618Z,"  -74"
2016-09-18T15:12:59.449Z,"  -77"
2016-09-18T15:17:56.004Z,"  -76"
2016-09-18T15:22:58.333Z,"  -77"
2016-09-18T15:27:54.920Z,"  -75"
2016-09-18T15:32:51.483Z,"  -79"
2016-09-18T15:37:48.293Z,"  -77"
2016-09-18T15:42:45.934Z,"  -75"
2016-09-18T15:47:42.632Z,"  -74"
2016-09-18T15:52:39.663Z,"  -73"
2016-09-18T16:02:38.853Z,"  -78"
2016-09-18T16:07:36.611Z,"  -77"
2016-09-18T16:12:33.045Z,"  -76"
2016-09-18T16:17:29.645Z,"  -78"
2016-09-18T16:22:26.385Z,"  -75"
2016-09-18T16:27:23.468Z,"  -75"
2016-09-18T16:32:20.068Z,"  -84"
2016-09-18T16:37:17.492Z,"  -74"
2016-09-18T16:42:13.770Z,"  -72"
2016-09-18T16:47:10.075Z,"  -73"
2016-09-18T16:52:06.942Z,"  -75"
2016-09-18T16:57:03.682Z,"  -78"
2016-09-18T17:02:00.280Z,"  -83"
2016-09-18T17:06:56.724Z,"  -75"
2016-09-18T17:11:53.475Z,"  -79"
2016-09-18T17:16:49.878Z,"  -81"
2016-09-18T17:21:46.508Z,"  -84"
2016-09-18T17:26:42.717Z,"  -83"
2016-09-18T17:31:39.197Z,"  -81"
2016-09-18T17:36:36.477Z,"  -83"
2016-09-18T17:41:32.923Z,"  -84"
2016-09-18T17:46:29.223Z,"  -85"
2016-09-18T17:51:25.791Z,"  -89"
2016-09-18T17:56:22.276Z,"  -87"
2016-09-18T18:01:19.121Z,"  -86"
2016-09-18T18:06:18.844Z,"  -85"
2016-09-18T18:11:14.894Z,"  -79"
2016-09-18T18:16:11.938Z,"  -84"
2016-09-18T18:21:08.384Z,"  -79"
2016-09-18T18:26:04.876Z,"  -81"
2016-09-18T18:31:03.968Z,"  -74"
2016-09-18T18:35:59.928Z,"  -82"
2016-09-18T18:40:56.294Z,"  -76"
2016-09-18T18:45:53.088Z,"  -78"
2016-09-18T18:50:49.842Z,"  -84"
2016-09-18T18:55:47.714Z,"  -81"
2016-09-18T19:00:43.995Z,"  -79"
2016-09-18T19:05:40.533Z,"  -80"
2016-09-18T19:10:37.148Z,"  -78"
2016-09-18T19:15:33.523Z,"  -82"
2016-09-18T19:20:30.105Z,"  -79"
2016-09-18T19:25:26.326Z,"  -78"
2016-09-18T19:30:22.875Z,"  -79"
2016-09-18T19:35:19.929Z,"  -80"
2016-09-18T19:40:16.435Z,"  -78"
2016-09-18T19:45:13.681Z,"  -82"
2016-09-18T19:50:09.946Z,"  -77"
2016-09-18T19:55:06.535Z,"  -79"
2016-09-18T20:00:03.570Z,"  -76"
2016-09-18T20:05:00.264Z,"  -82"
2016-09-18T20:09:56.987Z,"  -78"
2016-09-18T20:14:53.359Z,"  -80"
2016-09-18T20:19:49.507Z,"  -81"
2016-09-18T20:24:47.352Z,"  -81"
2016-09-18T20:29:43.727Z,"  -81"
2016-09-18T20:34:40.275Z,"  -82"
2016-09-18T20:39:36.927Z,"  -78"
2016-09-18T20:44:33.283Z,"  -78"
2016-09-18T20:49:30.095Z,"  -77"
2016-09-18T20:54:26.578Z,"  -79"
2016-09-18T20:59:23.201Z,"  -77"
2016-09-18T21:04:19.803Z,"  -74"
2016-09-18T21:09:16.221Z,"  -76"
2016-09-18T21:14:12.803Z,"  -74"
2016-09-18T21:19:09.479Z,"  -75"
2016-09-18T21:24:05.918Z,"  -81"
2016-09-18T21:29:03.028Z,"  -77"
2016-09-18T21:34:00.014Z,"  -85"
2016-09-18T21:38:56.840Z,"  -86"
2016-09-18T21:43:53.388Z,"  -85"
2016-09-18T21:48:50.865Z,"  -88"
2016-09-18T21:53:47.044Z,"  -80"
2016-09-18T21:58:43.413Z,"  -84"
2016-09-18T22:03:40.320Z,"  -82"
2016-09-18T22:08:36.860Z,"  -85"
2016-09-18T22:13:33.706Z,"  -84"
2016-09-18T22:18:30.304Z,"  -81"
2016-09-18T22:23:26.776Z,"  -85"
2016-09-18T22:28:23.294Z,"  -79"
2016-09-18T22:33:20.426Z,"  -80"
2016-09-18T22:38:17.007Z,"  -83"
2016-09-18T22:43:13.626Z,"  -84"
2016-09-18T22:48:10.279Z,"  -83"
2016-09-18T22:53:06.695Z,"  -83"
2016-09-18T22:58:03.346Z,"  -81"
2016-09-18T23:03:01.726Z,"  -84"
2016-09-18T23:07:59.365Z,"  -83"
2016-09-18T23:12:55.941Z,"  -84"
2016-09-18T23:17:52.351Z,"  -81"
2016-09-18T23:22:49.794Z,"  -84"
2016-09-18T23:27:47.678Z,"  -82"
2016-09-18T23:32:43.871Z,"  -81"
2016-09-18T23:37:40.575Z,"  -81"
2016-09-18T23:42:37.366Z,"  -81"
2016-09-18T23:47:33.780Z,"  -80"
2016-09-18T23:52:30.398Z,"  -81"
2016-09-18T23:57:27.200Z,"  -81"
